Time;durP1;ratioP1;P1;durP2;ratioP2;P2;SDS_P1;SDS_P2;PMS_P1;PMS_P2;Temp;Humidity;BMP_temperature;BMP_pressure;BME280_temperature;BME280_humidity;BME280_pressure;Samples;Min_cycle;Max_cycle;Signal;HPM_P1;HPM_P2
2023/01/10 00:00:34;;;;;;;10.07;2.28;;;6.40;99.90;;;;;;5034842;28;98531;-74
2023/01/10 00:03:07;;;;;;;8.38;2.65;;;6.40;99.90;;;;;;5017087;28;98918;-75
2023/01/10 00:05:36;;;;;;;13.43;4.10;;;6.30;99.90;;;;;;5034368;28;99595;-75
2023/01/10 00:08:04;;;;;;;9.23;2.85;;;6.30;99.90;;;;;;5034627;28;98983;-75
2023/01/10 00:10:32;;;;;;;9.80;2.30;;;6.20;99.90;;;;;;5016671;28;98622;-75
2023/01/10 00:15:45;;;;;;;13.57;2.92;;;6.10;99.90;;;;;;5033993;28;100237;-74
2023/01/10 00:18:13;;;;;;;9.02;2.65;;;6.10;99.90;;;;;;5015554;28;104313;-74
2023/01/10 00:20:40;;;;;;;11.40;2.70;;;6.00;99.90;;;;;;5016308;28;98739;-75
2023/01/10 00:23:07;;;;;;;12.27;2.65;;;6.00;99.90;;;;;;5032387;27;98613;-74
2023/01/10 00:25:34;;;;;;;11.20;2.70;;;6.00;99.90;;;;;;5033109;28;99222;-74
2023/01/10 00:28:20;;;;;;;12.23;3.05;;;5.90;99.90;;;;;;5033518;28;98997;-75
2023/01/10 00:31:05;;;;;;;12.15;2.35;;;5.90;99.90;;;;;;5016520;28;98605;-75
2023/01/10 00:33:34;;;;;;;12.57;2.58;;;5.80;99.90;;;;;;5001058;28;97787;-74
2023/01/10 00:36:03;;;;;;;7.28;2.15;;;5.70;99.90;;;;;;5033385;28;99829;-75
2023/01/10 00:38:32;;;;;;;10.05;3.17;;;5.70;99.90;;;;;;5015271;28;101811;-75
2023/01/10 00:40:59;;;;;;;17.08;2.80;;;5.70;99.90;;;;;;5033782;28;99344;-74
2023/01/10 00:46:12;;;;;;;14.85;2.92;;;5.60;99.90;;;;;;5015231;28;102012;-74
2023/01/10 00:48:39;;;;;;;10.50;2.92;;;5.60;99.90;;;;;;5033721;28;99082;-74
2023/01/10 00:51:06;;;;;;;11.10;3.00;;;5.60;99.90;;;;;;4982608;28;98584;-75
2023/01/10 00:53:33;;;;;;;12.15;3.40;;;5.60;99.90;;;;;;5016077;28;98475;-75
2023/01/10 00:56:01;;;;;;;12.68;3.97;;;5.60;99.90;;;;;;4998901;28;99777;-74
2023/01/10 00:58:28;;;;;;;14.27;3.03;;;5.70;99.90;;;;;;4999467;28;99207;-75
2023/01/10 01:00:55;;;;;;;9.10;2.58;;;5.70;99.90;;;;;;5016111;28;99419;-75
2023/01/10 01:03:22;;;;;;;9.45;2.70;;;5.80;99.90;;;;;;4998551;28;98564;-75
2023/01/10 01:05:49;;;;;;;15.27;3.70;;;5.80;99.90;;;;;;4998115;28;102638;-75
2023/01/10 01:08:18;;;;;;;9.77;3.30;;;5.90;99.90;;;;;;5033148;28;99792;-75
2023/01/10 01:10:45;;;;;;;18.85;3.17;;;6.00;99.90;;;;;;5033603;28;98403;-75
2023/01/10 01:13:15;;;;;;;15.40;3.45;;;6.00;99.90;;;;;;5015626;28;98535;-75
2023/01/10 01:15:43;;;;;;;15.60;2.90;;;6.10;99.90;;;;;;5015075;28;102051;-75
2023/01/10 01:18:16;;;;;;;11.32;2.80;;;6.10;99.90;;;;;;5015156;28;99096;-75
2023/01/10 01:20:47;;;;;;;12.75;2.72;;;6.10;99.90;;;;;;5015503;28;98485;-75
2023/01/10 01:23:14;;;;;;;15.30;3.17;;;6.10;99.90;;;;;;5015397;28;97853;-75
2023/01/10 01:25:41;;;;;;;13.70;3.42;;;6.10;99.90;;;;;;5014818;28;102286;-75
2023/01/10 01:28:11;;;;;;;15.18;2.67;;;6.10;99.90;;;;;;4998637;28;99103;-75
2023/01/10 01:30:38;;;;;;;16.00;2.97;;;6.10;99.90;;;;;;5032758;28;99264;-75
2023/01/10 01:33:05;;;;;;;12.95;3.00;;;6.10;99.90;;;;;;5014584;28;98577;-75
2023/01/10 01:35:32;;;;;;;21.55;3.70;;;6.10;99.90;;;;;;5031568;27;99344;-75
2023/01/10 01:37:59;;;;;;;11.85;2.53;;;6.10;99.90;;;;;;5015043;28;99099;-75
2023/01/10 01:40:26;;;;;;;15.60;3.50;;;6.10;99.90;;;;;;5015351;28;99070;-75
2023/01/10 01:42:56;;;;;;;17.55;3.00;;;6.10;99.90;;;;;;5031725;28;98586;-75
2023/01/10 01:45:23;;;;;;;13.05;2.50;;;6.10;99.90;;;;;;4997696;28;102277;-75
2023/01/10 01:48:05;;;;;;;13.70;3.13;;;6.10;99.90;;;;;;5015167;28;99209;-74
2023/01/10 01:50:58;;;;;;;13.85;2.88;;;6.10;99.90;;;;;;5033190;28;98549;-75
2023/01/10 01:53:31;;;;;;;18.45;3.40;;;6.20;99.90;;;;;;5014738;28;98605;-74
2023/01/10 01:56:13;;;;;;;11.30;2.90;;;6.30;99.90;;;;;;5032284;28;100038;-75
2023/01/10 01:58:52;;;;;;;12.32;2.97;;;6.30;99.90;;;;;;5032739;28;99840;-74
2023/01/10 02:01:22;;;;;;;13.68;3.20;;;6.40;99.90;;;;;;5033035;28;98521;-75
2023/01/10 02:03:56;;;;;;;12.48;2.95;;;6.30;99.90;;;;;;5032646;28;98958;-75
2023/01/10 02:06:24;;;;;;;15.93;3.58;;;6.30;99.90;;;;;;5032538;28;99335;-75
2023/01/10 02:09:02;;;;;;;7.10;2.47;;;6.20;99.90;;;;;;5032195;28;99161;-75
2023/01/10 02:11:29;;;;;;;20.75;5.05;;;6.30;99.90;;;;;;5014501;28;98618;-75
2023/01/10 02:13:58;;;;;;;14.60;3.00;;;6.10;99.90;;;;;;5033096;28;97778;-75
2023/01/10 02:16:25;;;;;;;15.52;3.35;;;6.10;99.90;;;;;;5031651;28;99384;-74
2023/01/10 02:18:52;;;;;;;17.95;3.70;;;6.10;99.90;;;;;;4997982;28;99146;-74
2023/01/10 02:21:32;;;;;;;17.48;3.13;;;6.00;99.90;;;;;;5013887;28;99413;-75
2023/01/10 02:24:23;;;;;;;13.93;2.65;;;6.10;99.90;;;;;;5031106;28;98535;-74
2023/01/10 02:27:41;;;;;;;13.70;3.15;;;6.10;99.90;;;;;;5014098;28;99449;-75
2023/01/10 02:30:33;;;;;;;19.00;3.05;;;6.10;99.90;;;;;;4970511;28;101910;-74
2023/01/10 02:33:09;;;;;;;15.32;3.25;;;6.10;99.90;;;;;;5032528;28;98500;-75
2023/01/10 02:35:55;;;;;;;11.95;2.95;;;6.10;99.90;;;;;;5032143;28;98497;-74
2023/01/10 02:38:49;;;;;;;16.15;2.83;;;6.10;99.90;;;;;;5013671;28;101841;-75
2023/01/10 02:41:42;;;;;;;15.65;2.97;;;6.00;99.90;;;;;;5013885;28;102023;-74
2023/01/10 02:44:26;;;;;;;15.95;3.10;;;5.90;99.90;;;;;;4997811;28;99196;-75
2023/01/10 02:46:55;;;;;;;14.55;3.00;;;5.80;99.90;;;;;;5016800;28;98534;-75
2023/01/10 02:49:22;;;;;;;14.75;3.28;;;5.70;99.90;;;;;;5016274;28;103103;-75
2023/01/10 02:51:49;;;;;;;19.45;3.17;;;5.70;99.90;;;;;;5017416;28;101933;-75
2023/01/10 02:54:28;;;;;;;14.95;2.95;;;5.70;99.90;;;;;;5000767;28;99357;-75
2023/01/10 02:56:54;;;;;;;17.65;3.28;;;5.80;99.90;;;;;;5017320;28;98543;-74
2023/01/10 02:59:43;;;;;;;11.73;2.67;;;5.70;99.90;;;;;;5035193;28;99468;-75
2023/01/10 03:02:42;;;;;;;12.00;3.13;;;5.80;99.90;;;;;;5035206;28;99007;-74
2023/01/10 03:05:45;;;;;;;17.13;3.33;;;5.70;99.90;;;;;;5017435;28;98630;-74
2023/01/10 03:08:21;;;;;;;12.07;3.33;;;5.70;99.90;;;;;;5014022;28;98452;-74
2023/01/10 03:10:57;;;;;;;13.18;3.33;;;5.60;99.90;;;;;;5017137;28;99315;-75
2023/01/10 03:13:33;;;;;;;14.00;2.70;;;5.60;99.90;;;;;;5034993;28;99034;-75
2023/01/10 03:16:04;;;;;;;14.77;3.25;;;5.60;99.90;;;;;;5035277;28;99215;-75
2023/01/10 03:18:40;;;;;;;16.92;3.40;;;5.60;99.90;;;;;;5017351;28;98511;-75
2023/01/10 03:21:10;;;;;;;14.80;4.05;;;5.70;99.90;;;;;;5035010;28;99431;-75
2023/01/10 03:23:39;;;;;;;20.75;3.47;;;5.70;99.90;;;;;;5016584;28;100141;-74
2023/01/10 03:26:08;;;;;;;12.10;3.50;;;5.80;99.90;;;;;;5016698;28;98603;-74
2023/01/10 03:28:49;;;;;;;18.20;3.50;;;5.90;99.90;;;;;;5016984;28;98571;-75
2023/01/10 03:31:24;;;;;;;17.38;3.38;;;6.00;99.90;;;;;;5035235;28;99406;-74
2023/01/10 03:33:51;;;;;;;14.10;3.13;;;6.00;99.90;;;;;;5035109;28;99023;-74
2023/01/10 03:36:49;;;;;;;16.88;4.05;;;6.00;99.90;;;;;;5017608;28;99211;-74
2023/01/10 03:39:33;;;;;;;14.13;4.38;;;6.10;99.90;;;;;;5016914;28;98586;-74
2023/01/10 03:42:15;;;;;;;15.45;3.55;;;6.10;99.90;;;;;;5015948;28;102729;-74
2023/01/10 03:44:59;;;;;;;12.85;3.30;;;6.10;99.90;;;;;;5034459;28;99517;-74
2023/01/10 03:47:44;;;;;;;13.43;2.50;;;6.10;99.90;;;;;;5033410;28;98669;-74
2023/01/10 03:50:17;;;;;;;16.83;2.97;;;6.00;99.90;;;;;;5016828;28;98508;-74
2023/01/10 03:52:45;;;;;;;13.03;3.47;;;6.00;99.90;;;;;;5034430;28;99276;-74
2023/01/10 03:55:15;;;;;;;14.35;3.08;;;5.90;99.90;;;;;;5034398;28;99020;-75
2023/01/10 03:57:47;;;;;;;11.93;2.75;;;6.00;99.90;;;;;;5033838;27;98572;-75
2023/01/10 04:00:16;;;;;;;10.98;2.67;;;6.00;99.90;;;;;;5017306;28;97816;-74
2023/01/10 04:02:43;;;;;;;18.50;3.45;;;6.00;99.90;;;;;;5033762;28;99320;-75
2023/01/10 04:05:10;;;;;;;13.23;2.85;;;6.00;99.90;;;;;;5034269;28;98959;-75
2023/01/10 04:07:37;;;;;;;17.85;3.47;;;6.00;99.90;;;;;;4999550;28;99245;-75
2023/01/10 04:10:05;;;;;;;16.90;3.78;;;6.10;99.90;;;;;;5034570;28;99331;-75
2023/01/10 04:12:32;;;;;;;13.15;3.22;;;6.10;99.90;;;;;;5034030;28;99408;-75
2023/01/10 04:15:00;;;;;;;13.43;3.38;;;6.10;99.90;;;;;;5015676;28;101921;-74
2023/01/10 04:17:27;;;;;;;19.15;3.92;;;6.20;99.90;;;;;;5016225;28;98515;-74
2023/01/10 04:19:54;;;;;;;18.83;3.22;;;6.30;99.90;;;;;;5016254;28;98569;-74
2023/01/10 04:22:21;;;;;;;14.93;4.07;;;6.30;99.90;;;;;;4999187;28;102258;-74
2023/01/10 04:24:50;;;;;;;15.20;3.63;;;6.40;99.90;;;;;;4998883;28;102530;-75
2023/01/10 04:27:18;;;;;;;12.80;3.80;;;6.40;99.90;;;;;;5016920;28;98543;-75
2023/01/10 04:29:46;;;;;;;16.85;3.60;;;6.40;99.90;;;;;;5016249;28;98574;-74
2023/01/10 04:32:13;;;;;;;11.93;3.60;;;6.40;99.90;;;;;;4998698;28;101623;-75
2023/01/10 04:34:40;;;;;;;17.25;3.35;;;6.30;99.90;;;;;;5033801;28;99770;-75
2023/01/10 04:37:07;;;;;;;9.75;2.88;;;6.30;99.90;;;;;;5034203;28;99185;-75
2023/01/10 04:39:34;;;;;;;14.80;3.65;;;6.20;99.90;;;;;;5016194;28;98586;-75
2023/01/10 04:42:01;;;;;;;10.43;3.25;;;6.10;99.90;;;;;;5015799;28;99363;-74
2023/01/10 04:44:28;;;;;;;10.32;3.60;;;6.10;99.90;;;;;;5015561;28;99039;-74
2023/01/10 04:46:58;;;;;;;15.85;3.40;;;6.00;99.90;;;;;;5016572;28;98553;-75
2023/01/10 04:49:25;;;;;;;14.15;3.28;;;6.00;99.90;;;;;;5034133;28;97863;-75
2023/01/10 04:51:52;;;;;;;14.95;3.80;;;5.90;99.90;;;;;;5015398;28;100359;-75
2023/01/10 04:54:20;;;;;;;14.40;3.20;;;5.80;99.90;;;;;;5033376;28;99129;-75
2023/01/10 04:56:47;;;;;;;14.55;3.80;;;5.90;99.90;;;;;;5015011;28;99453;-75
2023/01/10 04:59:14;;;;;;;14.38;3.38;;;5.90;99.90;;;;;;5015790;28;98976;-75
2023/01/10 05:01:41;;;;;;;13.00;3.30;;;5.90;99.90;;;;;;5033106;28;99460;-75
2023/01/10 05:04:09;;;;;;;12.32;4.15;;;5.80;99.90;;;;;;5015475;28;99177;-75
2023/01/10 05:06:38;;;;;;;17.23;4.70;;;5.80;99.90;;;;;;4998863;28;99464;-75
2023/01/10 05:09:07;;;;;;;15.88;3.13;;;5.90;99.90;;;;;;4999479;28;98645;-75
2023/01/10 05:11:34;;;;;;;15.40;2.72;;;5.90;99.90;;;;;;5032587;28;99350;-75
2023/01/10 05:14:01;;;;;;;12.65;4.18;;;5.80;99.90;;;;;;5015744;28;99156;-75
2023/01/10 05:16:28;;;;;;;19.17;3.72;;;5.90;99.90;;;;;;4999213;28;99151;-75
2023/01/10 05:18:56;;;;;;;13.43;3.67;;;5.90;99.90;;;;;;5033323;28;98529;-75
2023/01/10 05:21:23;;;;;;;17.83;3.50;;;5.90;99.90;;;;;;5014387;28;102746;-75
2023/01/10 05:23:50;;;;;;;19.40;3.63;;;5.90;99.90;;;;;;5014204;28;102615;-75
2023/01/10 05:26:21;;;;;;;20.38;3.90;;;5.90;99.90;;;;;;5011478;28;98665;-75
2023/01/10 05:28:48;;;;;;;13.52;4.72;;;5.90;99.90;;;;;;5013257;28;98948;-75
2023/01/10 05:31:18;;;;;;;15.57;4.43;;;5.90;99.90;;;;;;4995270;28;99262;-75
2023/01/10 05:33:50;;;;;;;19.73;4.28;;;5.90;99.90;;;;;;5012561;28;99424;-75
2023/01/10 05:36:18;;;;;;;24.90;4.78;;;5.90;99.90;;;;;;5013277;28;98514;-75
2023/01/10 05:38:45;;;;;;;15.95;4.28;;;5.90;99.90;;;;;;5011636;28;97841;-75
2023/01/10 05:41:12;;;;;;;16.70;4.10;;;5.90;99.90;;;;;;4994761;28;101824;-74
2023/01/10 05:43:39;;;;;;;23.73;4.43;;;6.00;99.90;;;;;;5012296;28;103111;-75
2023/01/10 05:46:06;;;;;;;16.65;4.25;;;6.00;99.90;;;;;;5012608;28;99323;-74
2023/01/10 05:48:33;;;;;;;15.02;4.57;;;6.10;99.90;;;;;;5012944;28;98490;-75
2023/01/10 05:51:00;;;;;;;20.27;3.95;;;6.20;99.90;;;;;;5011222;28;99164;-76
2023/01/10 05:53:27;;;;;;;16.67;4.22;;;6.30;99.90;;;;;;5012263;28;99105;-75
2023/01/10 05:55:56;;;;;;;21.45;4.28;;;6.40;99.90;;;;;;5011261;28;98579;-75
2023/01/10 05:58:23;;;;;;;18.83;3.80;;;6.40;99.90;;;;;;5011446;28;98687;-75
2023/01/10 06:00:50;;;;;;;16.55;4.82;;;6.50;99.90;;;;;;5012301;28;99266;-75
2023/01/10 06:03:17;;;;;;;13.82;3.80;;;6.50;99.90;;;;;;5012476;28;99022;-75
2023/01/10 06:05:45;;;;;;;19.83;4.80;;;6.60;99.90;;;;;;5012664;28;99205;-75
2023/01/10 06:08:14;;;;;;;14.60;4.03;;;6.60;99.90;;;;;;5011343;28;98929;-75
2023/01/10 06:10:41;;;;;;;17.15;5.60;;;6.70;99.90;;;;;;5011798;28;100132;-75
2023/01/10 06:13:09;;;;;;;17.65;3.75;;;6.70;99.90;;;;;;5010724;28;99951;-75
2023/01/10 06:15:36;;;;;;;13.95;4.10;;;6.70;99.90;;;;;;5011550;28;98510;-75
2023/01/10 06:18:03;;;;;;;18.63;4.07;;;6.80;99.90;;;;;;5012108;28;98564;-75
2023/01/10 06:20:30;;;;;;;17.58;3.72;;;6.90;99.90;;;;;;5011278;28;99863;-75
2023/01/10 06:23:01;;;;;;;16.10;4.38;;;6.90;99.90;;;;;;5018557;28;99215;-75
2023/01/10 06:25:28;;;;;;;18.20;4.03;;;7.00;99.90;;;;;;5025511;28;98553;-75
2023/01/10 06:27:55;;;;;;;18.33;3.90;;;7.00;99.90;;;;;;5039186;28;97908;-75
2023/01/10 06:30:22;;;;;;;20.70;4.28;;;7.00;99.90;;;;;;5003660;28;102185;-75
2023/01/10 06:32:49;;;;;;;20.42;4.43;;;7.10;99.90;;;;;;5038691;28;99199;-75
2023/01/10 06:35:16;;;;;;;36.38;10.00;;;7.10;99.90;;;;;;5003963;28;99260;-75
2023/01/10 06:37:44;;;;;;;31.38;8.05;;;7.10;99.90;;;;;;5020188;28;99532;-75
2023/01/10 06:40:11;;;;;;;28.10;7.97;;;7.10;99.90;;;;;;5038939;28;99288;-75
2023/01/10 06:42:39;;;;;;;18.55;5.03;;;7.10;99.90;;;;;;5037174;28;101381;-75
2023/01/10 06:45:09;;;;;;;17.25;5.35;;;7.00;99.90;;;;;;5021156;28;98587;-75
2023/01/10 06:47:36;;;;;;;23.33;7.97;;;6.90;99.90;;;;;;5003836;28;98661;-75
2023/01/10 06:50:04;;;;;;;23.25;9.90;;;6.90;99.90;;;;;;5038675;28;99123;-75
2023/01/10 06:52:31;;;;;;;21.83;5.05;;;6.80;99.90;;;;;;5038795;28;99103;-75
2023/01/10 06:54:58;;;;;;;17.73;4.35;;;6.70;99.90;;;;;;5004182;28;98547;-76
2023/01/10 06:57:27;;;;;;;25.58;4.82;;;6.70;99.90;;;;;;5020630;28;98559;-76
2023/01/10 06:59:54;;;;;;;21.55;4.63;;;6.70;99.90;;;;;;5019919;28;100238;-75
2023/01/10 07:02:21;;;;;;;22.85;6.00;;;6.70;99.90;;;;;;5038306;28;99863;-76
2023/01/10 07:04:48;;;;;;;18.63;5.03;;;6.60;99.90;;;;;;5003777;28;99017;-75
2023/01/10 07:07:15;;;;;;;25.88;4.60;;;6.60;99.90;;;;;;5020514;28;98672;-75
2023/01/10 07:09:43;;;;;;;18.95;6.55;;;6.60;99.90;;;;;;5020431;28;99368;-76
2023/01/10 07:12:10;;;;;;;23.13;5.60;;;6.60;99.90;;;;;;5020152;28;98998;-76
2023/01/10 07:14:37;;;;;;;21.00;5.28;;;6.50;99.90;;;;;;5038309;28;98483;-74
2023/01/10 07:17:04;;;;;;;21.67;5.32;;;6.50;99.90;;;;;;5020402;28;97783;-76
2023/01/10 07:19:31;;;;;;;19.20;5.50;;;6.60;99.90;;;;;;5020261;28;99145;-74
2023/01/10 07:21:58;;;;;;;17.75;5.03;;;6.50;99.90;;;;;;5019780;28;98976;-74
2023/01/10 07:24:25;;;;;;;18.33;5.68;;;6.60;99.90;;;;;;5020349;28;99334;-74
2023/01/10 07:26:55;;;;;;;21.05;5.10;;;6.70;99.90;;;;;;5003454;28;98634;-75
2023/01/10 07:29:22;;;;;;;17.15;6.57;;;6.70;99.90;;;;;;5036533;28;100647;-74
2023/01/10 07:31:49;;;;;;;21.55;6.88;;;6.80;99.90;;;;;;5019234;27;101593;-74
2023/01/10 07:34:16;;;;;;;21.85;5.65;;;6.90;99.90;;;;;;5033864;28;98806;-74
2023/01/10 07:36:43;;;;;;;20.10;6.35;;;7.00;99.90;;;;;;5017368;28;98568;-74
2023/01/10 07:39:10;;;;;;;24.80;5.60;;;7.00;99.90;;;;;;5016243;28;99544;-74
2023/01/10 07:41:37;;;;;;;20.52;5.68;;;7.10;99.90;;;;;;5017247;28;99338;-74
2023/01/10 07:44:04;;;;;;;18.98;6.03;;;7.10;99.90;;;;;;5034923;28;98633;-74
2023/01/10 07:46:31;;;;;;;25.33;8.55;;;7.20;99.90;;;;;;5016869;28;99051;-74
2023/01/10 07:48:58;;;;;;;26.85;6.90;;;7.20;99.90;;;;;;4998507;28;100237;-74
2023/01/10 07:51:25;;;;;;;24.02;6.22;;;7.20;99.90;;;;;;5016217;28;102322;-74
2023/01/10 07:53:52;;;;;;;21.17;5.70;;;7.30;99.90;;;;;;5017090;28;98545;-74
2023/01/10 07:56:19;;;;;;;22.42;6.07;;;7.30;99.90;;;;;;5016309;28;99008;-74
2023/01/10 07:58:46;;;;;;;22.30;6.03;;;7.30;99.90;;;;;;5016079;28;101881;-75
2023/01/10 08:01:13;;;;;;;24.42;5.72;;;7.30;99.90;;;;;;5015978;28;99983;-74
2023/01/10 08:03:40;;;;;;;18.00;5.22;;;7.30;99.90;;;;;;5016343;28;98514;-74
2023/01/10 08:06:11;;;;;;;26.75;6.90;;;7.30;99.90;;;;;;5034714;28;98303;-75
2023/01/10 08:08:41;;;;;;;17.45;6.13;;;7.30;99.90;;;;;;5016022;28;102014;-74
2023/01/10 08:11:08;;;;;;;19.00;4.90;;;7.30;99.90;;;;;;4999328;28;99261;-75
2023/01/10 08:13:35;;;;;;;25.15;5.53;;;7.40;99.90;;;;;;5016532;28;99316;-75
2023/01/10 08:16:07;;;;;;;18.88;5.05;;;7.40;99.90;;;;;;5016080;28;98526;-75
2023/01/10 08:18:35;;;;;;;15.05;5.40;;;7.50;99.90;;;;;;5034078;28;99268;-75
2023/01/10 08:21:02;;;;;;;24.15;5.15;;;7.50;99.90;;;;;;5033858;28;99220;-75
2023/01/10 08:23:29;;;;;;;24.25;4.75;;;7.50;99.90;;;;;;5034271;28;98540;-75
2023/01/10 08:25:58;;;;;;;23.13;5.90;;;7.60;99.90;;;;;;5015820;28;98525;-75
2023/01/10 08:28:25;;;;;;;21.63;5.13;;;7.60;99.90;;;;;;5033778;28;99372;-75
2023/01/10 08:30:54;;;;;;;17.92;5.32;;;7.60;99.90;;;;;;5016317;28;99170;-75
2023/01/10 08:33:22;;;;;;;26.48;7.72;;;7.70;99.90;;;;;;5015806;28;98509;-75
2023/01/10 08:35:50;;;;;;;16.10;5.93;;;7.70;99.90;;;;;;5015721;28;98649;-75
2023/01/10 08:38:17;;;;;;;19.08;4.70;;;7.80;99.90;;;;;;5015307;28;100495;-75
2023/01/10 08:40:44;;;;;;;23.27;5.47;;;7.80;99.90;;;;;;5015409;28;102449;-75
2023/01/10 08:43:12;;;;;;;21.33;5.35;;;7.90;99.90;;;;;;4999370;28;99159;-75
2023/01/10 08:45:39;;;;;;;17.65;4.20;;;7.90;99.90;;;;;;5033440;28;98488;-75
2023/01/10 08:48:08;;;;;;;18.77;4.60;;;8.00;99.90;;;;;;4998454;28;102450;-75
2023/01/10 08:50:35;;;;;;;18.55;4.25;;;8.10;99.90;;;;;;5033542;28;99277;-74
2023/01/10 08:53:02;;;;;;;20.40;5.10;;;8.10;99.90;;;;;;5034266;28;99078;-75
2023/01/10 08:55:34;;;;;;;16.13;5.28;;;8.10;99.90;;;;;;5016530;28;97830;-75
2023/01/10 08:58:01;;;;;;;18.95;4.35;;;8.10;99.90;;;;;;5015079;28;102323;-75
2023/01/10 09:00:29;;;;;;;17.38;4.78;;;8.10;99.90;;;;;;4998630;28;102149;-75
2023/01/10 09:02:56;;;;;;;17.00;5.15;;;8.20;99.90;;;;;;4998704;28;99404;-75
2023/01/10 09:05:24;;;;;;;21.75;5.28;;;8.10;99.90;;;;;;5015308;28;98562;-75
2023/01/10 09:07:59;;;;;;;19.92;4.72;;;8.10;99.90;;;;;;4999322;28;100630;-75
2023/01/10 09:10:29;;;;;;;17.70;4.43;;;8.10;99.90;;;;;;5032719;28;98914;-78
2023/01/10 09:13:00;;;;;;;21.45;4.07;;;8.00;99.90;;;;;;5015668;28;98608;-75
2023/01/10 09:15:39;;;;;;;15.82;4.55;;;8.00;99.90;;;;;;5015196;28;98668;-75
2023/01/10 09:18:06;;;;;;;21.60;5.05;;;8.00;99.90;;;;;;4999152;28;99613;-73
2023/01/10 09:20:36;;;;;;;16.98;4.80;;;7.90;99.90;;;;;;5033340;28;98982;-76
2023/01/10 09:23:16;;;;;;;17.63;4.88;;;7.90;99.90;;;;;;5032375;28;98616;-74
2023/01/10 09:25:45;;;;;;;21.30;4.80;;;7.90;99.90;;;;;;5014880;28;98593;-73
2023/01/10 09:28:12;;;;;;;16.52;3.67;;;7.90;99.90;;;;;;5032544;28;100256;-74
2023/01/10 09:30:39;;;;;;;20.85;4.22;;;8.00;99.90;;;;;;5032891;28;99792;-73
2023/01/10 09:33:06;;;;;;;19.05;4.90;;;8.00;99.90;;;;;;5015534;28;98564;-74
2023/01/10 09:35:36;;;;;;;25.25;5.03;;;8.00;99.90;;;;;;5033355;28;98476;-73
2023/01/10 09:38:04;;;;;;;22.77;6.18;;;8.10;99.90;;;;;;4998158;28;102062;-73
2023/01/10 09:40:58;;;;;;;13.48;3.97;;;8.10;99.90;;;;;;5014756;28;99003;-74
2023/01/10 09:43:32;;;;;;;17.98;4.40;;;8.20;99.90;;;;;;5031439;28;98650;-74
2023/01/10 09:46:14;;;;;;;21.92;4.15;;;8.10;99.90;;;;;;5015790;28;97751;-74
2023/01/10 09:49:18;;;;;;;23.35;4.80;;;8.20;99.90;;;;;;5032999;28;99351;-74
2023/01/10 09:51:49;;;;;;;16.80;4.85;;;8.30;99.90;;;;;;5032801;28;99676;-74
2023/01/10 09:54:30;;;;;;;14.27;4.65;;;8.30;99.90;;;;;;4997957;28;99755;-74
2023/01/10 09:56:59;;;;;;;16.48;4.30;;;8.50;99.90;;;;;;5014076;28;98670;-74
2023/01/10 09:59:38;;;;;;;15.85;3.72;;;8.60;99.90;;;;;;5032047;28;99387;-74
2023/01/10 10:02:31;;;;;;;21.77;4.47;;;8.70;99.90;;;;;;5032657;28;99360;-74
2023/01/10 10:05:03;;;;;;;17.50;4.40;;;8.80;99.90;;;;;;4998302;28;98484;-74
2023/01/10 10:07:30;;;;;;;17.13;3.80;;;8.90;99.90;;;;;;5014379;28;98554;-74
2023/01/10 10:09:57;;;;;;;18.23;5.15;;;9.00;99.90;;;;;;5032208;28;99315;-72
2023/01/10 10:12:40;;;;;;;18.75;4.07;;;9.00;99.90;;;;;;5014368;28;101911;-73
2023/01/10 10:15:25;;;;;;;18.45;4.40;;;9.10;99.90;;;;;;5015256;28;98569;-73
2023/01/10 10:18:07;;;;;;;19.67;3.97;;;9.20;99.90;;;;;;5032782;28;98449;-73
2023/01/10 10:20:54;;;;;;;12.88;3.80;;;9.20;99.90;;;;;;5013680;28;99823;-73
2023/01/10 10:23:39;;;;;;;14.65;5.05;;;9.30;99.90;;;;;;5014354;28;99878;-73
2023/01/10 10:26:26;;;;;;;18.63;5.10;;;9.30;99.90;;;;;;5032327;28;99079;-73
2023/01/10 10:29:09;;;;;;;19.48;4.70;;;9.30;99.90;;;;;;5015057;28;98429;-73
2023/01/10 10:32:00;;;;;;;15.07;4.22;;;9.40;99.90;;;;;;5014213;28;99276;-73
2023/01/10 10:34:37;;;;;;;13.70;4.40;;;9.40;99.90;;;;;;5032130;28;99060;-73
2023/01/10 10:37:19;;;;;;;19.27;4.97;;;9.50;99.90;;;;;;5014260;28;98593;-73
2023/01/10 10:39:50;;;;;;;53.17;27.10;;;9.50;99.90;;;;;;5032790;28;97799;-73
2023/01/10 10:42:18;;;;;;;16.30;5.15;;;9.50;99.90;;;;;;4996683;28;101969;-73
2023/01/10 10:45:04;;;;;;;18.17;5.55;;;9.50;99.90;;;;;;5031882;28;98987;-73
2023/01/10 10:47:39;;;;;;;19.45;5.10;;;9.60;99.90;;;;;;5013964;28;99202;-73
2023/01/10 10:50:28;;;;;;;14.90;5.57;;;9.70;99.90;;;;;;5032552;28;98509;-73
2023/01/10 10:52:55;;;;;;;22.10;9.30;;;9.70;99.90;;;;;;5013696;28;101934;-73
2023/01/10 10:55:33;;;;;;;19.75;6.43;;;9.70;99.90;;;;;;5013792;28;99059;-73
2023/01/10 10:58:02;;;;;;;20.13;6.38;;;9.80;99.90;;;;;;5013596;28;98645;-73
2023/01/10 11:00:29;;;;;;;17.08;6.00;;;9.90;99.90;;;;;;5031737;28;98525;-73
2023/01/10 11:03:17;;;;;;;22.75;7.10;;;9.90;99.90;;;;;;4997121;28;101779;-73
2023/01/10 11:05:46;;;;;;;19.52;8.60;;;9.90;99.90;;;;;;5031950;28;99119;-73
2023/01/10 11:08:16;;;;;;;22.90;8.73;;;10.00;99.90;;;;;;5016327;28;98575;-73
2023/01/10 11:10:48;;;;;;;20.38;6.85;;;10.00;99.90;;;;;;5035312;28;98500;-73
2023/01/10 11:13:30;;;;;;;24.67;12.48;;;10.00;99.90;;;;;;5017106;28;100087;-73
2023/01/10 11:15:58;;;;;;;26.58;7.57;;;10.00;99.90;;;;;;4999820;28;102450;-73
2023/01/10 11:18:28;;;;;;;23.98;7.57;;;10.00;99.90;;;;;;5017018;28;98634;-73
2023/01/10 11:20:59;;;;;;;22.55;6.43;;;10.10;99.90;;;;;;5017380;28;98480;-73
2023/01/10 11:23:49;;;;;;;19.77;7.13;;;10.10;99.90;;;;;;5034904;28;99515;-73
2023/01/10 11:26:29;;;;;;;21.83;8.15;;;10.20;99.90;;;;;;5016955;28;98950;-73
2023/01/10 11:29:18;;;;;;;19.02;7.38;;;10.20;99.90;;;;;;5017871;28;98660;-73
2023/01/10 11:31:47;;;;;;;18.23;6.88;;;10.30;99.90;;;;;;5017646;28;97757;-73
2023/01/10 11:34:34;;;;;;;26.95;7.38;;;10.20;99.90;;;;;;5034687;28;99282;-73
2023/01/10 11:37:23;;;;;;;19.77;6.95;;;10.30;99.90;;;;;;5016458;28;101980;-73
2023/01/10 11:40:18;;;;;;;17.73;6.60;;;10.30;99.90;;;;;;5016967;28;99213;-74
2023/01/10 11:42:46;;;;;;;29.88;6.15;;;10.30;99.90;;;;;;5016661;28;98594;-74
2023/01/10 11:45:19;;;;;;;20.40;5.80;;;10.20;99.90;;;;;;5034754;28;99224;-73
2023/01/10 11:47:53;;;;;;;21.57;6.70;;;10.30;99.90;;;;;;5032926;27;101645;-73
2023/01/10 11:50:26;;;;;;;20.83;5.72;;;10.30;99.90;;;;;;5016991;28;99554;-73
2023/01/10 11:52:53;;;;;;;20.13;6.60;;;10.30;99.90;;;;;;5035368;28;98600;-73
2023/01/10 11:55:24;;;;;;;18.55;5.38;;;10.30;99.90;;;;;;5016619;28;103784;-74
2023/01/10 11:58:14;;;;;;;22.75;6.38;;;10.30;99.90;;;;;;5016590;28;101684;-74
2023/01/10 12:00:48;;;;;;;17.73;5.50;;;10.30;99.90;;;;;;5006983;28;99447;-74
2023/01/10 12:03:15;;;;;;;15.90;5.13;;;10.20;99.90;;;;;;5016685;28;98586;-74
2023/01/10 12:05:59;;;;;;;18.90;5.90;;;10.20;99.90;;;;;;5033967;28;100224;-74
2023/01/10 12:08:29;;;;;;;16.73;5.07;;;10.20;99.90;;;;;;5034651;28;99806;-74
2023/01/10 12:11:04;;;;;;;15.07;4.45;;;10.20;99.90;;;;;;5016677;28;98579;-74
2023/01/10 12:13:47;;;;;;;15.45;5.10;;;10.10;99.90;;;;;;5016694;28;98586;-73
2023/01/10 12:16:25;;;;;;;23.13;5.90;;;10.10;99.90;;;;;;5016136;28;101770;-73
2023/01/10 12:18:56;;;;;;;15.57;5.00;;;10.10;99.90;;;;;;5033084;27;98978;-73
2023/01/10 12:21:34;;;;;;;15.98;5.45;;;10.00;99.90;;;;;;5034533;28;98572;-73
2023/01/10 12:24:16;;;;;;;21.58;5.55;;;10.00;99.90;;;;;;5017054;28;97782;-73
2023/01/10 12:26:46;;;;;;;15.15;5.75;;;10.00;99.90;;;;;;5033491;28;99760;-73
2023/01/10 12:29:24;;;;;;;20.42;5.55;;;10.00;99.90;;;;;;5033791;28;99112;-73
2023/01/10 12:31:53;;;;;;;17.85;5.07;;;10.00;99.90;;;;;;4999018;28;99229;-74
2023/01/10 12:34:32;;;;;;;16.50;5.03;;;10.00;99.90;;;;;;5034245;28;98544;-74
2023/01/10 12:37:25;;;;;;;18.52;5.20;;;10.00;99.90;;;;;;5015914;28;99097;-74
2023/01/10 12:39:59;;;;;;;15.93;5.47;;;10.00;99.90;;;;;;5033577;28;99456;-72
2023/01/10 12:46:15;;;;;;;20.08;5.63;;;10.00;99.90;;;;;;5015564;28;98594;-73
2023/01/10 12:49:12;;;;;;;18.40;4.95;;;9.90;99.90;;;;;;5031115;28;99875;-73
2023/01/10 12:51:41;;;;;;;15.88;4.30;;;9.90;99.90;;;;;;5015540;28;101831;-73
2023/01/10 12:54:16;;;;;;;17.50;4.90;;;9.80;99.90;;;;;;5016119;28;99161;-73
2023/01/10 12:56:45;;;;;;;17.58;4.72;;;9.80;99.90;;;;;;5015466;28;98938;-73
2023/01/10 12:59:24;;;;;;;17.83;4.50;;;9.70;99.90;;;;;;5014934;28;102728;-73
2023/01/10 13:02:15;;;;;;;15.43;4.63;;;9.80;99.90;;;;;;5006631;28;102092;-73
2023/01/10 13:04:47;;;;;;;16.45;4.40;;;9.70;99.90;;;;;;5013651;28;98444;-73
2023/01/10 13:07:15;;;;;;;21.65;4.60;;;9.70;99.90;;;;;;4995470;28;98476;-73
2023/01/10 13:09:44;;;;;;;22.55;5.68;;;9.70;99.90;;;;;;5013193;28;98880;-72
2023/01/10 13:12:25;;;;;;;25.65;4.63;;;9.70;99.90;;;;;;4995223;28;99019;-73
2023/01/10 13:15:11;;;;;;;18.80;4.47;;;9.70;99.90;;;;;;5013448;28;98476;-73
2023/01/10 13:18:18;;;;;;;15.38;4.18;;;9.60;99.90;;;;;;5013809;28;98545;-73